sensor_id;sensor_type;location;lat;lon;timestamp;P1;durP1;ratioP1;P2;durP2;ratioP2
20935;SDS011;10627;54.514;18.532;2022-12-07T00:03:02;20.63;;;9.50;;
20935;SDS011;10627;54.514;18.532;2022-12-07T00:08:02;20.50;;;9.37;;
20935;SDS011;10627;54.514;18.532;2022-12-07T00:13:03;19.23;;;8.83;;
20935;SDS011;10627;54.514;18.532;2022-12-07T00:18:03;18.73;;;8.70;;
20935;SDS011;10627;54.514;18.532;2022-12-07T00:23:04;19.40;;;8.33;;
20935;SDS011;10627;54.514;18.532;2022-12-07T00:28:04;17.27;;;7.87;;
20935;SDS011;10627;54.514;18.532;2022-12-07T00:33:05;17.67;;;8.70;;
20935;SDS011;10627;54.514;18.532;2022-12-07T00:38:05;20.50;;;8.47;;
20935;SDS011;10627;54.514;18.532;2022-12-07T00:43:06;17.00;;;8.40;;
20935;SDS011;10627;54.514;18.532;2022-12-07T00:48:07;13.53;;;6.57;;
20935;SDS011;10627;54.514;18.532;2022-12-07T00:53:07;19.60;;;8.57;;
20935;SDS011;10627;54.514;18.532;2022-12-07T00:58:08;11.80;;;6.57;;
20935;SDS011;10627;54.514;18.532;2022-12-07T01:03:09;15.13;;;7.27;;
20935;SDS011;10627;54.514;18.532;2022-12-07T01:08:10;17.87;;;7.67;;
20935;SDS011;10627;54.514;18.532;2022-12-07T01:13:11;16.47;;;6.57;;
20935;SDS011;10627;54.514;18.532;2022-12-07T01:18:11;15.43;;;7.50;;
20935;SDS011;10627;54.514;18.532;2022-12-07T01:23:12;12.13;;;6.30;;
20935;SDS011;10627;54.514;18.532;2022-12-07T01:28:12;16.03;;;7.40;;
20935;SDS011;10627;54.514;18.532;2022-12-07T01:33:13;13.00;;;6.73;;
20935;SDS011;10627;54.514;18.532;2022-12-07T01:38:13;13.80;;;6.70;;
20935;SDS011;10627;54.514;18.532;2022-12-07T01:43:17;11.63;;;5.53;;
20935;SDS011;10627;54.514;18.532;2022-12-07T01:48:19;10.67;;;5.63;;
20935;SDS011;10627;54.514;18.532;2022-12-07T01:53:21;12.03;;;5.63;;
20935;SDS011;10627;54.514;18.532;2022-12-07T01:58:25;12.77;;;5.80;;
20935;SDS011;10627;54.514;18.532;2022-12-07T02:03:36;12.07;;;5.60;;
20935;SDS011;10627;54.514;18.532;2022-12-07T02:08:37;11.00;;;5.27;;
20935;SDS011;10627;54.514;18.532;2022-12-07T02:13:39;13.73;;;6.27;;
20935;SDS011;10627;54.514;18.532;2022-12-07T02:29:25;12.10;;;5.77;;
20935;SDS011;10627;54.514;18.532;2022-12-07T02:34:39;12.00;;;5.20;;
20935;SDS011;10627;54.514;18.532;2022-12-07T02:39:44;11.13;;;5.70;;
20935;SDS011;10627;54.514;18.532;2022-12-07T02:44:47;9.97;;;5.07;;
20935;SDS011;10627;54.514;18.532;2022-12-07T02:49:48;12.50;;;4.60;;
20935;SDS011;10627;54.514;18.532;2022-12-07T02:54:49;10.73;;;4.90;;
20935;SDS011;10627;54.514;18.532;2022-12-07T02:59:55;8.70;;;4.93;;
20935;SDS011;10627;54.514;18.532;2022-12-07T03:05:09;8.33;;;4.63;;
20935;SDS011;10627;54.514;18.532;2022-12-07T03:15:26;7.20;;;4.00;;
20935;SDS011;10627;54.514;18.532;2022-12-07T03:20:29;7.07;;;3.43;;
20935;SDS011;10627;54.514;18.532;2022-12-07T03:25:32;6.93;;;4.00;;
20935;SDS011;10627;54.514;18.532;2022-12-07T03:35:36;5.47;;;3.00;;
20935;SDS011;10627;54.514;18.532;2022-12-07T03:40:44;7.03;;;3.00;;
20935;SDS011;10627;54.514;18.532;2022-12-07T03:51:28;5.30;;;3.00;;
20935;SDS011;10627;54.514;18.532;2022-12-07T03:56:27;4.60;;;2.60;;
20935;SDS011;10627;54.514;18.532;2022-12-07T04:01:29;3.97;;;2.27;;
20935;SDS011;10627;54.514;18.532;2022-12-07T04:06:31;4.43;;;2.53;;
20935;SDS011;10627;54.514;18.532;2022-12-07T04:11:32;3.83;;;2.50;;
20935;SDS011;10627;54.514;18.532;2022-12-07T04:16:34;2.93;;;2.20;;
20935;SDS011;10627;54.514;18.532;2022-12-07T04:21:36;3.17;;;2.17;;
20935;SDS011;10627;54.514;18.532;2022-12-07T04:26:37;2.50;;;2.07;;
20935;SDS011;10627;54.514;18.532;2022-12-07T04:31:37;4.00;;;2.27;;
20935;SDS011;10627;54.514;18.532;2022-12-07T04:36:38;4.23;;;2.50;;
20935;SDS011;10627;54.514;18.532;2022-12-07T04:41:39;2.80;;;2.00;;
20935;SDS011;10627;54.514;18.532;2022-12-07T04:46:39;4.00;;;2.70;;
20935;SDS011;10627;54.514;18.532;2022-12-07T04:51:40;5.67;;;2.73;;
20935;SDS011;10627;54.514;18.532;2022-12-07T04:56:40;4.20;;;2.67;;
20935;SDS011;10627;54.514;18.532;2022-12-07T05:01:41;4.40;;;2.90;;
20935;SDS011;10627;54.514;18.532;2022-12-07T05:06:41;4.77;;;2.63;;
20935;SDS011;10627;54.514;18.532;2022-12-07T05:11:42;3.67;;;3.00;;
20935;SDS011;10627;54.514;18.532;2022-12-07T05:16:44;4.10;;;2.93;;
20935;SDS011;10627;54.514;18.532;2022-12-07T05:21:45;3.73;;;2.80;;
20935;SDS011;10627;54.514;18.532;2022-12-07T05:26:46;4.27;;;2.93;;
20935;SDS011;10627;54.514;18.532;2022-12-07T05:31:46;3.80;;;2.97;;
20935;SDS011;10627;54.514;18.532;2022-12-07T05:36:47;3.63;;;3.30;;
20935;SDS011;10627;54.514;18.532;2022-12-07T05:41:47;2.80;;;2.33;;
20935;SDS011;10627;54.514;18.532;2022-12-07T05:47:06;2.17;;;1.97;;
20935;SDS011;10627;54.514;18.532;2022-12-07T05:52:07;2.30;;;1.87;;
20935;SDS011;10627;54.514;18.532;2022-12-07T05:57:07;6.43;;;3.20;;
20935;SDS011;10627;54.514;18.532;2022-12-07T06:02:09;5.53;;;2.97;;
20935;SDS011;10627;54.514;18.532;2022-12-07T06:07:10;1.77;;;1.50;;
20935;SDS011;10627;54.514;18.532;2022-12-07T06:12:11;1.03;;;1.03;;
20935;SDS011;10627;54.514;18.532;2022-12-07T06:17:31;1.40;;;1.00;;
20935;SDS011;10627;54.514;18.532;2022-12-07T06:22:32;3.43;;;1.00;;
20935;SDS011;10627;54.514;18.532;2022-12-07T06:27:32;1.40;;;0.70;;
20935;SDS011;10627;54.514;18.532;2022-12-07T06:32:33;3.87;;;0.90;;
20935;SDS011;10627;54.514;18.532;2022-12-07T06:37:34;0.70;;;0.70;;
20935;SDS011;10627;54.514;18.532;2022-12-07T06:42:34;2.77;;;1.00;;
20935;SDS011;10627;54.514;18.532;2022-12-07T06:47:35;0.80;;;0.80;;
20935;SDS011;10627;54.514;18.532;2022-12-07T06:52:35;1.57;;;0.90;;
20935;SDS011;10627;54.514;18.532;2022-12-07T06:57:36;1.17;;;1.07;;
20935;SDS011;10627;54.514;18.532;2022-12-07T07:02:36;1.67;;;1.03;;
20935;SDS011;10627;54.514;18.532;2022-12-07T07:07:37;1.17;;;1.07;;
20935;SDS011;10627;54.514;18.532;2022-12-07T07:18:43;4.83;;;1.77;;
20935;SDS011;10627;54.514;18.532;2022-12-07T07:23:44;3.50;;;1.90;;
20935;SDS011;10627;54.514;18.532;2022-12-07T07:28:45;2.80;;;2.17;;
20935;SDS011;10627;54.514;18.532;2022-12-07T07:33:46;3.37;;;2.53;;
20935;SDS011;10627;54.514;18.532;2022-12-07T07:38:46;2.97;;;2.00;;
20935;SDS011;10627;54.514;18.532;2022-12-07T07:43:47;2.97;;;2.30;;
20935;SDS011;10627;54.514;18.532;2022-12-07T07:48:47;2.33;;;2.13;;
20935;SDS011;10627;54.514;18.532;2022-12-07T07:53:48;4.37;;;2.60;;
20935;SDS011;10627;54.514;18.532;2022-12-07T07:58:51;4.90;;;1.97;;
20935;SDS011;10627;54.514;18.532;2022-12-07T08:03:52;3.53;;;2.57;;
20935;SDS011;10627;54.514;18.532;2022-12-07T08:08:52;4.07;;;2.80;;
20935;SDS011;10627;54.514;18.532;2022-12-07T08:13:52;9.10;;;2.90;;
20935;SDS011;10627;54.514;18.532;2022-12-07T08:18:53;5.30;;;2.77;;
20935;SDS011;10627;54.514;18.532;2022-12-07T08:23:53;5.63;;;3.20;;
20935;SDS011;10627;54.514;18.532;2022-12-07T08:28:54;3.57;;;2.17;;
20935;SDS011;10627;54.514;18.532;2022-12-07T08:33:54;3.50;;;2.67;;
20935;SDS011;10627;54.514;18.532;2022-12-07T08:38:55;6.23;;;3.67;;
20935;SDS011;10627;54.514;18.532;2022-12-07T08:43:56;4.73;;;3.50;;
20935;SDS011;10627;54.514;18.532;2022-12-07T08:48:57;3.93;;;2.93;;
20935;SDS011;10627;54.514;18.532;2022-12-07T08:54:03;5.23;;;3.30;;
20935;SDS011;10627;54.514;18.532;2022-12-07T08:59:05;4.77;;;2.80;;
20935;SDS011;10627;54.514;18.532;2022-12-07T09:04:05;4.93;;;2.90;;
20935;SDS011;10627;54.514;18.532;2022-12-07T09:09:06;4.03;;;2.47;;
20935;SDS011;10627;54.514;18.532;2022-12-07T09:14:07;4.97;;;2.97;;
20935;SDS011;10627;54.514;18.532;2022-12-07T09:19:08;3.77;;;2.67;;
20935;SDS011;10627;54.514;18.532;2022-12-07T09:24:09;2.73;;;2.13;;
20935;SDS011;10627;54.514;18.532;2022-12-07T09:29:09;4.13;;;2.37;;
20935;SDS011;10627;54.514;18.532;2022-12-07T09:34:10;4.00;;;2.60;;
20935;SDS011;10627;54.514;18.532;2022-12-07T09:39:11;6.10;;;2.27;;
20935;SDS011;10627;54.514;18.532;2022-12-07T09:44:18;2.70;;;2.27;;
20935;SDS011;10627;54.514;18.532;2022-12-07T09:49:21;4.33;;;2.23;;
20935;SDS011;10627;54.514;18.532;2022-12-07T09:54:22;4.37;;;2.20;;
20935;SDS011;10627;54.514;18.532;2022-12-07T09:59:23;4.33;;;2.53;;
20935;SDS011;10627;54.514;18.532;2022-12-07T10:04:26;4.70;;;2.30;;
20935;SDS011;10627;54.514;18.532;2022-12-07T10:09:27;2.53;;;2.03;;
20935;SDS011;10627;54.514;18.532;2022-12-07T10:14:31;3.70;;;2.33;;
20935;SDS011;10627;54.514;18.532;2022-12-07T10:19:32;3.63;;;2.67;;
20935;SDS011;10627;54.514;18.532;2022-12-07T10:24:36;5.13;;;3.43;;
20935;SDS011;10627;54.514;18.532;2022-12-07T10:29:39;5.53;;;3.60;;
20935;SDS011;10627;54.514;18.532;2022-12-07T10:34:40;4.53;;;3.33;;
20935;SDS011;10627;54.514;18.532;2022-12-07T10:39:46;3.70;;;3.03;;
20935;SDS011;10627;54.514;18.532;2022-12-07T10:44:47;4.53;;;3.33;;
20935;SDS011;10627;54.514;18.532;2022-12-07T10:55:13;5.97;;;4.00;;
20935;SDS011;10627;54.514;18.532;2022-12-07T11:00:25;4.67;;;2.93;;
20935;SDS011;10627;54.514;18.532;2022-12-07T11:21:09;5.13;;;3.07;;
20935;SDS011;10627;54.514;18.532;2022-12-07T11:36:47;6.20;;;3.90;;
20935;SDS011;10627;54.514;18.532;2022-12-07T11:41:52;5.37;;;3.70;;
20935;SDS011;10627;54.514;18.532;2022-12-07T11:46:57;3.37;;;2.80;;
20935;SDS011;10627;54.514;18.532;2022-12-07T11:51:59;4.20;;;3.20;;
20935;SDS011;10627;54.514;18.532;2022-12-07T11:57:04;5.83;;;3.77;;
20935;SDS011;10627;54.514;18.532;2022-12-07T12:02:13;6.17;;;3.33;;
20935;SDS011;10627;54.514;18.532;2022-12-07T12:07:15;5.50;;;3.00;;
20935;SDS011;10627;54.514;18.532;2022-12-07T12:22:28;8.77;;;4.60;;
20935;SDS011;10627;54.514;18.532;2022-12-07T12:27:36;14.13;;;6.53;;
20935;SDS011;10627;54.514;18.532;2022-12-07T12:32:38;6.67;;;4.50;;
20935;SDS011;10627;54.514;18.532;2022-12-07T12:37:40;5.63;;;4.10;;
20935;SDS011;10627;54.514;18.532;2022-12-07T12:42:45;5.97;;;4.63;;
20935;SDS011;10627;54.514;18.532;2022-12-07T13:03:35;6.73;;;4.03;;
20935;SDS011;10627;54.514;18.532;2022-12-07T13:08:35;5.90;;;4.10;;
20935;SDS011;10627;54.514;18.532;2022-12-07T13:13:40;4.70;;;3.50;;
20935;SDS011;10627;54.514;18.532;2022-12-07T13:18:41;5.57;;;3.60;;
20935;SDS011;10627;54.514;18.532;2022-12-07T13:29:35;5.53;;;3.53;;
20935;SDS011;10627;54.514;18.532;2022-12-07T13:39:27;6.20;;;4.00;;
20935;SDS011;10627;54.514;18.532;2022-12-07T13:44:28;6.03;;;3.77;;
20935;SDS011;10627;54.514;18.532;2022-12-07T13:49:30;7.27;;;3.47;;
20935;SDS011;10627;54.514;18.532;2022-12-07T13:54:30;8.07;;;4.00;;
20935;SDS011;10627;54.514;18.532;2022-12-07T13:59:31;8.70;;;3.97;;
20935;SDS011;10627;54.514;18.532;2022-12-07T14:04:34;8.17;;;3.37;;
20935;SDS011;10627;54.514;18.532;2022-12-07T14:09:35;7.53;;;3.47;;
20935;SDS011;10627;54.514;18.532;2022-12-07T14:14:35;5.90;;;3.43;;
20935;SDS011;10627;54.514;18.532;2022-12-07T14:19:44;5.17;;;3.50;;
20935;SDS011;10627;54.514;18.532;2022-12-07T14:24:45;4.93;;;3.30;;
20935;SDS011;10627;54.514;18.532;2022-12-07T14:29:45;5.87;;;3.50;;
20935;SDS011;10627;54.514;18.532;2022-12-07T14:34:53;5.17;;;3.30;;
20935;SDS011;10627;54.514;18.532;2022-12-07T14:39:54;7.20;;;3.30;;
20935;SDS011;10627;54.514;18.532;2022-12-07T14:44:55;8.87;;;4.33;;
20935;SDS011;10627;54.514;18.532;2022-12-07T14:49:56;10.70;;;5.20;;
20935;SDS011;10627;54.514;18.532;2022-12-07T14:54:57;6.73;;;3.10;;
20935;SDS011;10627;54.514;18.532;2022-12-07T14:59:57;4.90;;;3.37;;
20935;SDS011;10627;54.514;18.532;2022-12-07T15:04:58;9.27;;;3.80;;
20935;SDS011;10627;54.514;18.532;2022-12-07T15:09:58;5.80;;;3.87;;
20935;SDS011;10627;54.514;18.532;2022-12-07T15:14:59;6.50;;;3.33;;
20935;SDS011;10627;54.514;18.532;2022-12-07T15:20:02;6.87;;;3.83;;
20935;SDS011;10627;54.514;18.532;2022-12-07T15:25:03;6.53;;;3.30;;
20935;SDS011;10627;54.514;18.532;2022-12-07T15:30:06;6.73;;;2.87;;
20935;SDS011;10627;54.514;18.532;2022-12-07T15:35:07;5.60;;;3.07;;
20935;SDS011;10627;54.514;18.532;2022-12-07T15:40:08;6.43;;;3.67;;
20935;SDS011;10627;54.514;18.532;2022-12-07T15:45:10;10.77;;;3.93;;
20935;SDS011;10627;54.514;18.532;2022-12-07T15:50:12;10.03;;;4.20;;
20935;SDS011;10627;54.514;18.532;2022-12-07T15:55:13;8.80;;;4.27;;
20935;SDS011;10627;54.514;18.532;2022-12-07T16:00:14;7.20;;;3.83;;
20935;SDS011;10627;54.514;18.532;2022-12-07T16:05:15;7.00;;;3.90;;
20935;SDS011;10627;54.514;18.532;2022-12-07T16:10:15;7.57;;;4.00;;
20935;SDS011;10627;54.514;18.532;2022-12-07T16:15:16;3.97;;;2.43;;
20935;SDS011;10627;54.514;18.532;2022-12-07T16:20:16;4.53;;;2.57;;
20935;SDS011;10627;54.514;18.532;2022-12-07T16:25:17;5.23;;;2.73;;
20935;SDS011;10627;54.514;18.532;2022-12-07T16:30:17;5.13;;;2.97;;
20935;SDS011;10627;54.514;18.532;2022-12-07T16:35:18;5.77;;;2.80;;
20935;SDS011;10627;54.514;18.532;2022-12-07T16:40:19;2.23;;;2.00;;
20935;SDS011;10627;54.514;18.532;2022-12-07T16:45:19;3.13;;;2.10;;
20935;SDS011;10627;54.514;18.532;2022-12-07T16:50:20;5.23;;;2.53;;
20935;SDS011;10627;54.514;18.532;2022-12-07T16:55:20;3.80;;;2.20;;
20935;SDS011;10627;54.514;18.532;2022-12-07T17:00:21;2.03;;;1.60;;
20935;SDS011;10627;54.514;18.532;2022-12-07T17:05:22;4.50;;;2.60;;
20935;SDS011;10627;54.514;18.532;2022-12-07T17:10:24;3.03;;;2.40;;
20935;SDS011;10627;54.514;18.532;2022-12-07T17:15:25;4.67;;;2.60;;
20935;SDS011;10627;54.514;18.532;2022-12-07T17:20:27;5.37;;;2.80;;
20935;SDS011;10627;54.514;18.532;2022-12-07T17:25:27;2.57;;;1.90;;
20935;SDS011;10627;54.514;18.532;2022-12-07T17:30:28;2.27;;;1.73;;
20935;SDS011;10627;54.514;18.532;2022-12-07T17:35:28;5.50;;;1.43;;
20935;SDS011;10627;54.514;18.532;2022-12-07T17:40:29;4.37;;;1.80;;
20935;SDS011;10627;54.514;18.532;2022-12-07T17:45:30;4.63;;;2.27;;
20935;SDS011;10627;54.514;18.532;2022-12-07T17:50:31;1.97;;;1.70;;
20935;SDS011;10627;54.514;18.532;2022-12-07T17:55:52;2.97;;;2.07;;
20935;SDS011;10627;54.514;18.532;2022-12-07T18:00:53;3.60;;;1.57;;
20935;SDS011;10627;54.514;18.532;2022-12-07T18:05:54;3.73;;;2.30;;
20935;SDS011;10627;54.514;18.532;2022-12-07T18:10:58;3.13;;;2.27;;
20935;SDS011;10627;54.514;18.532;2022-12-07T18:15:59;4.37;;;1.77;;
20935;SDS011;10627;54.514;18.532;2022-12-07T18:21:18;2.23;;;1.80;;
20935;SDS011;10627;54.514;18.532;2022-12-07T18:26:20;2.93;;;2.00;;
20935;SDS011;10627;54.514;18.532;2022-12-07T18:31:21;3.47;;;1.70;;
20935;SDS011;10627;54.514;18.532;2022-12-07T18:36:22;2.63;;;1.37;;
20935;SDS011;10627;54.514;18.532;2022-12-07T18:41:23;3.07;;;2.47;;
20935;SDS011;10627;54.514;18.532;2022-12-07T18:46:24;5.30;;;2.63;;
20935;SDS011;10627;54.514;18.532;2022-12-07T18:51:24;8.53;;;2.87;;
20935;SDS011;10627;54.514;18.532;2022-12-07T18:56:26;4.77;;;2.73;;
20935;SDS011;10627;54.514;18.532;2022-12-07T19:01:26;5.00;;;2.37;;
20935;SDS011;10627;54.514;18.532;2022-12-07T19:06:27;6.80;;;2.73;;
20935;SDS011;10627;54.514;18.532;2022-12-07T19:11:29;5.40;;;1.63;;
20935;SDS011;10627;54.514;18.532;2022-12-07T19:16:49;7.43;;;2.63;;
20935;SDS011;10627;54.514;18.532;2022-12-07T19:21:50;2.83;;;1.60;;
20935;SDS011;10627;54.514;18.532;2022-12-07T19:26:51;2.53;;;1.57;;
20935;SDS011;10627;54.514;18.532;2022-12-07T19:31:52;5.33;;;2.00;;
20935;SDS011;10627;54.514;18.532;2022-12-07T19:36:53;1.40;;;1.23;;
20935;SDS011;10627;54.514;18.532;2022-12-07T19:41:53;1.63;;;1.30;;
20935;SDS011;10627;54.514;18.532;2022-12-07T19:46:55;1.83;;;1.13;;
20935;SDS011;10627;54.514;18.532;2022-12-07T19:51:57;4.00;;;1.67;;
20935;SDS011;10627;54.514;18.532;2022-12-07T19:57:02;2.93;;;1.27;;
20935;SDS011;10627;54.514;18.532;2022-12-07T20:02:04;4.40;;;1.73;;
20935;SDS011;10627;54.514;18.532;2022-12-07T20:07:05;5.70;;;1.60;;
20935;SDS011;10627;54.514;18.532;2022-12-07T20:12:07;2.17;;;1.40;;
20935;SDS011;10627;54.514;18.532;2022-12-07T20:17:27;1.40;;;1.30;;
20935;SDS011;10627;54.514;18.532;2022-12-07T20:22:27;3.37;;;1.90;;
20935;SDS011;10627;54.514;18.532;2022-12-07T20:27:28;2.50;;;1.60;;
20935;SDS011;10627;54.514;18.532;2022-12-07T20:32:28;2.60;;;1.47;;
20935;SDS011;10627;54.514;18.532;2022-12-07T20:37:29;2.60;;;1.50;;
20935;SDS011;10627;54.514;18.532;2022-12-07T20:42:30;2.03;;;1.40;;
20935;SDS011;10627;54.514;18.532;2022-12-07T20:47:37;2.83;;;1.23;;
20935;SDS011;10627;54.514;18.532;2022-12-07T20:52:38;2.50;;;1.53;;
20935;SDS011;10627;54.514;18.532;2022-12-07T20:57:39;3.83;;;1.30;;
20935;SDS011;10627;54.514;18.532;2022-12-07T21:02:39;1.93;;;1.07;;
20935;SDS011;10627;54.514;18.532;2022-12-07T21:07:40;1.37;;;1.27;;
20935;SDS011;10627;54.514;18.532;2022-12-07T21:12:41;1.97;;;1.70;;
20935;SDS011;10627;54.514;18.532;2022-12-07T21:17:42;2.27;;;1.27;;
20935;SDS011;10627;54.514;18.532;2022-12-07T21:22:42;3.37;;;1.33;;
20935;SDS011;10627;54.514;18.532;2022-12-07T21:27:43;1.97;;;1.50;;
20935;SDS011;10627;54.514;18.532;2022-12-07T21:32:43;3.60;;;1.80;;
20935;SDS011;10627;54.514;18.532;2022-12-07T21:37:44;1.57;;;1.30;;
20935;SDS011;10627;54.514;18.532;2022-12-07T21:42:44;1.97;;;1.13;;
20935;SDS011;10627;54.514;18.532;2022-12-07T21:47:45;2.00;;;1.30;;
20935;SDS011;10627;54.514;18.532;2022-12-07T21:52:46;2.57;;;1.40;;
20935;SDS011;10627;54.514;18.532;2022-12-07T21:57:46;2.00;;;1.40;;
20935;SDS011;10627;54.514;18.532;2022-12-07T22:02:47;2.33;;;1.50;;
20935;SDS011;10627;54.514;18.532;2022-12-07T22:07:47;4.00;;;1.40;;
20935;SDS011;10627;54.514;18.532;2022-12-07T22:12:48;2.83;;;1.57;;
20935;SDS011;10627;54.514;18.532;2022-12-07T22:17:49;2.30;;;1.33;;
20935;SDS011;10627;54.514;18.532;2022-12-07T22:22:49;2.93;;;1.57;;
20935;SDS011;10627;54.514;18.532;2022-12-07T22:27:50;1.77;;;1.17;;
20935;SDS011;10627;54.514;18.532;2022-12-07T22:32:51;4.90;;;1.97;;
20935;SDS011;10627;54.514;18.532;2022-12-07T22:37:51;2.47;;;1.30;;
20935;SDS011;10627;54.514;18.532;2022-12-07T22:42:52;3.80;;;1.43;;
20935;SDS011;10627;54.514;18.532;2022-12-07T22:47:52;2.30;;;1.50;;
20935;SDS011;10627;54.514;18.532;2022-12-07T22:52:53;2.60;;;1.67;;
20935;SDS011;10627;54.514;18.532;2022-12-07T22:57:54;2.80;;;1.77;;
20935;SDS011;10627;54.514;18.532;2022-12-07T23:02:54;4.33;;;1.83;;
20935;SDS011;10627;54.514;18.532;2022-12-07T23:07:55;2.17;;;1.67;;
20935;SDS011;10627;54.514;18.532;2022-12-07T23:12:55;1.90;;;1.47;;
20935;SDS011;10627;54.514;18.532;2022-12-07T23:18:15;1.77;;;1.40;;
20935;SDS011;10627;54.514;18.532;2022-12-07T23:23:15;2.03;;;1.40;;
20935;SDS011;10627;54.514;18.532;2022-12-07T23:28:16;1.90;;;1.57;;
20935;SDS011;10627;54.514;18.532;2022-12-07T23:33:17;2.60;;;1.30;;
20935;SDS011;10627;54.514;18.532;2022-12-07T23:38:17;2.63;;;1.47;;
20935;SDS011;10627;54.514;18.532;2022-12-07T23:43:18;3.73;;;1.50;;
20935;SDS011;10627;54.514;18.532;2022-12-07T23:48:19;2.37;;;1.70;;
20935;SDS011;10627;54.514;18.532;2022-12-07T23:53:19;2.27;;;1.63;;
20935;SDS011;10627;54.514;18.532;2022-12-07T23:58:20;5.37;;;1.73;;
